Time;durP1;ratioP1;P1;durP2;ratioP2;P2;SDS_P1;SDS_P2;PMS_P1;PMS_P2;Temp;Humidity;BMP_temperature;BMP_pressure;BME280_temperature;BME280_humidity;BME280_pressure;Samples;Min_cycle;Max_cycle;Signal;HPM_P1;HPM_P2
2022/11/08 00:17:16;;;;;;;34.00;14.70;;;;;;;9.23;61.61;99326.21;223118;1250;139616;-67
2022/11/08 00:22:19;;;;;;;25.20;14.60;;;;;;;9.13;61.23;99327.27;223277;1247;140027;-65
2022/11/08 00:27:24;;;;;;;26.70;14.00;;;;;;;9.01;61.27;99325.08;224311;1239;140432;-60
2022/11/08 00:32:27;;;;;;;26.60;14.80;;;;;;;8.88;61.60;99323.58;223492;1255;139326;-65
2022/11/08 00:37:30;;;;;;;28.70;16.50;;;;;;;8.83;61.56;99323.14;223238;1243;140200;-67
2022/11/08 00:42:33;;;;;;;27.50;15.80;;;;;;;8.79;61.72;99319.08;223905;1247;140959;-67
2022/11/08 00:47:36;;;;;;;28.20;16.10;;;;;;;8.73;61.72;99314.61;223858;1250;139383;-65
2022/11/08 00:52:39;;;;;;;26.80;15.90;;;;;;;8.68;61.93;99316.98;223160;1247;140236;-67
2022/11/08 00:57:42;;;;;;;29.10;15.90;;;;;;;8.63;61.66;99317.77;223928;1243;139476;-65
2022/11/08 01:03:17;;;;;;;24.30;15.20;;;;;;;8.60;61.95;99318.61;223206;1249;140086;-67
2022/11/08 01:08:21;;;;;;;28.40;15.10;;;;;;;8.63;61.97;99318.83;223078;1256;141191;-70
2022/11/08 01:13:25;;;;;;;26.60;15.10;;;;;;;8.63;61.95;99318.67;223138;1256;138943;-67
2022/11/08 01:18:27;;;;;;;26.50;15.30;;;;;;;8.60;62.03;99320.94;223131;1256;139417;-69
2022/11/08 01:23:32;;;;;;;23.10;15.40;;;;;;;8.57;62.04;99314.53;223266;1247;140320;-66
2022/11/08 01:28:36;;;;;;;27.10;15.90;;;;;;;8.52;62.01;99315.29;223303;1256;139830;-67
2022/11/08 01:33:39;;;;;;;28.20;15.90;;;;;;;8.50;62.23;99315.55;223277;1257;139443;-64
2022/11/08 01:38:42;;;;;;;26.50;15.60;;;;;;;8.47;61.97;99315.70;223104;1256;140000;-67
2022/11/08 01:43:54;;;;;;;29.50;16.00;;;;;;;8.43;61.95;99310.77;223227;1257;139955;-67
2022/11/08 01:49:10;;;;;;;30.20;16.90;;;;;;;8.39;62.18;99310.97;223244;1240;140622;-65
2022/11/08 01:54:20;;;;;;;34.90;17.30;;;;;;;8.31;61.96;99311.52;224009;1242;140943;-64
2022/11/08 01:59:23;;;;;;;34.20;17.80;;;;;;;8.21;62.05;99310.41;223190;1256;140761;-63
2022/11/08 02:04:29;;;;;;;28.60;17.10;;;;;;;8.14;61.74;99312.52;223268;1251;140247;-68
2022/11/08 02:09:36;;;;;;;34.10;17.70;;;;;;;8.07;62.12;99315.30;223341;1247;139087;-70
2022/11/08 02:14:39;;;;;;;38.80;17.80;;;;;;;8.06;62.06;99311.12;223972;1250;140613;-63
2022/11/08 02:19:45;;;;;;;33.90;17.30;;;;;;;8.06;61.99;99304.95;223889;1247;140834;-65
2022/11/08 02:24:48;;;;;;;24.70;16.00;;;;;;;8.02;62.39;99299.46;223202;1248;140050;-72
2022/11/08 02:29:53;;;;;;;26.20;17.70;;;;;;;8.01;62.21;99298.44;223268;1253;142216;-66
2022/11/08 02:34:58;;;;;;;31.40;18.40;;;;;;;8.02;62.29;99299.48;223151;1249;140328;-64
2022/11/08 02:40:07;;;;;;;33.90;16.90;;;;;;;8.01;61.98;99297.24;223293;1248;139784;-65
2022/11/08 02:45:10;;;;;;;30.40;17.20;;;;;;;7.96;61.96;99298.35;223997;1249;139762;-68
2022/11/08 02:50:13;;;;;;;23.10;15.50;;;;;;;7.88;61.75;99298.17;223978;1247;139540;-68
2022/11/08 02:55:16;;;;;;;26.20;16.40;;;;;;;7.82;61.93;99301.15;223226;1247;139499;-69
2022/11/08 03:00:19;;;;;;;22.30;14.30;;;;;;;7.72;61.71;99300.87;224072;1242;140099;-65
2022/11/08 03:05:24;;;;;;;23.80;15.10;;;;;;;7.61;61.73;99301.91;223906;1246;139408;-67
2022/11/08 03:10:27;;;;;;;24.90;14.40;;;;;;;7.53;61.77;99302.45;223314;1247;141223;-66
2022/11/08 03:15:31;;;;;;;23.50;15.50;;;;;;;7.46;61.92;99299.05;223275;1256;140322;-70
2022/11/08 03:20:34;;;;;;;25.50;14.80;;;;;;;7.42;61.68;99298.90;223357;1247;139287;-64
2022/11/08 03:25:37;;;;;;;25.80;15.40;;;;;;;7.42;62.09;99301.88;223308;1248;140271;-63
2022/11/08 03:30:40;;;;;;;24.30;14.40;;;;;;;7.47;62.07;99303.95;224065;1250;140720;-64
2022/11/08 03:35:43;;;;;;;30.40;15.90;;;;;;;7.53;62.21;99304.90;223267;1256;139496;-65
2022/11/08 03:40:46;;;;;;;33.30;16.80;;;;;;;7.56;62.18;99301.60;223337;1250;139811;-66
2022/11/08 03:45:49;;;;;;;29.90;16.80;;;;;;;7.55;62.29;99302.34;224081;1250;140050;-65
2022/11/08 03:50:52;;;;;;;30.10;16.40;;;;;;;7.52;61.82;99307.09;223192;1256;140027;-64
2022/11/08 03:55:58;;;;;;;30.90;16.40;;;;;;;7.45;62.14;99307.06;223256;1247;139062;-63
2022/11/08 04:01:04;;;;;;;26.20;15.50;;;;;;;7.38;62.12;99307.53;224139;1247;140489;-63
2022/11/08 04:06:09;;;;;;;30.60;16.00;;;;;;;7.32;62.19;99311.50;223352;1252;140487;-63
2022/11/08 04:16:33;;;;;;;30.80;16.10;;;;;;;7.24;62.72;99309.59;223321;1257;139681;-61
2022/11/08 04:21:36;;;;;;;27.80;16.00;;;;;;;7.23;62.33;99306.26;223369;1257;139789;-62
2022/11/08 04:26:40;;;;;;;28.70;16.80;;;;;;;7.22;62.56;99305.40;223213;1247;139435;-62
2022/11/08 04:31:42;;;;;;;36.90;16.50;;;;;;;7.22;62.38;99309.67;223956;1249;139704;-63
2022/11/08 04:36:45;;;;;;;32.30;15.70;;;;;;;7.23;62.68;99304.30;223891;1247;140578;-64
2022/11/08 04:41:48;;;;;;;29.10;16.10;;;;;;;7.30;62.82;99296.07;223302;1247;141012;-68
2022/11/08 04:46:51;;;;;;;29.00;16.00;;;;;;;7.36;62.96;99293.69;223395;1254;138980;-66
2022/11/08 04:51:54;;;;;;;31.40;16.90;;;;;;;7.39;62.86;99290.74;223679;1254;139387;-62
2022/11/08 04:56:57;;;;;;;35.10;16.60;;;;;;;7.39;62.63;99288.95;223282;1253;140047;-60
2022/11/08 05:02:02;;;;;;;35.70;16.70;;;;;;;7.37;62.57;99285.02;224136;1247;140401;-65
2022/11/08 05:07:05;;;;;;;33.80;15.60;;;;;;;7.31;62.70;99285.42;223300;1251;139777;-64
2022/11/08 05:12:08;;;;;;;35.00;16.50;;;;;;;7.25;62.44;99282.36;223257;1247;140398;-62
2022/11/08 05:17:11;;;;;;;52.30;25.00;;;;;;;7.18;62.45;99278.41;223240;1258;139557;-63
2022/11/08 05:27:35;;;;;;;29.60;16.40;;;;;;;7.27;62.84;99278.19;224056;1240;139344;-63
2022/11/08 05:32:38;;;;;;;37.20;17.50;;;;;;;7.24;62.71;99281.71;223267;1257;142067;-63
2022/11/08 05:37:41;;;;;;;28.70;16.00;;;;;;;7.19;62.74;99290.39;223161;1256;139330;-64
2022/11/08 05:42:44;;;;;;;31.10;17.40;;;;;;;7.13;62.63;99293.11;223166;1247;138851;-66
2022/11/08 05:47:47;;;;;;;30.60;16.20;;;;;;;7.09;62.56;99300.87;223352;1257;140042;-66
2022/11/08 05:52:53;;;;;;;42.60;19.70;;;;;;;7.14;63.23;99298.52;223266;1253;139850;-63
2022/11/08 05:57:56;;;;;;;31.70;16.20;;;;;;;7.26;63.15;99307.20;223406;1253;139908;-65
2022/11/08 06:03:02;;;;;;;30.70;16.20;;;;;;;7.23;62.71;99310.50;223378;1253;139744;-62
2022/11/08 06:08:05;;;;;;;27.50;16.00;;;;;;;7.19;62.96;99316.31;223252;1257;139246;-66
2022/11/08 06:13:08;;;;;;;35.80;21.40;;;;;;;7.21;63.31;99305.09;223274;1250;139371;-66
2022/11/08 06:18:11;;;;;;;36.90;16.90;;;;;;;7.35;63.38;99306.45;223239;1250;139649;-63
2022/11/08 06:23:14;;;;;;;39.90;16.30;;;;;;;7.39;63.40;99318.09;223969;1246;139652;-65
2022/11/08 06:28:17;;;;;;;26.50;14.80;;;;;;;7.36;63.32;99321.55;223123;1258;140366;-63
2022/11/08 06:33:20;;;;;;;28.10;14.70;;;;;;;7.31;62.99;99328.48;223779;1247;140232;-69
2022/11/08 06:38:24;;;;;;;34.90;13.80;;;;;;;7.32;63.30;99330.03;223149;1250;140044;-64
2022/11/08 06:43:27;;;;;;;25.30;14.90;;;;;;;7.37;63.38;99333.36;222359;1248;140942;-64
2022/11/08 06:48:30;;;;;;;28.50;14.60;;;;;;;7.48;63.38;99334.30;222237;1247;139873;-66
2022/11/08 06:53:38;;;;;;;31.20;14.60;;;;;;;7.58;63.41;99333.83;222466;1256;141634;-66
2022/11/08 06:58:41;;;;;;;26.00;14.70;;;;;;;7.69;63.59;99339.67;222804;1257;139775;-65
2022/11/08 07:03:44;;;;;;;22.90;14.30;;;;;;;7.77;63.77;99341.09;223276;1257;139991;-64
2022/11/08 07:08:47;;;;;;;24.80;14.30;;;;;;;7.85;63.41;99351.16;223108;1256;139685;-64
2022/11/08 07:13:50;;;;;;;99.90;82.90;;;;;;;7.92;63.69;99345.17;223187;1247;139283;-63
2022/11/08 07:18:54;;;;;;;29.90;16.20;;;;;;;8.03;64.22;99347.30;223891;1244;139662;-68
2022/11/08 07:23:57;;;;;;;31.20;15.00;;;;;;;8.12;63.93;99346.52;223958;1249;139971;-67
2022/11/08 07:29:01;;;;;;;33.10;15.00;;;;;;;8.19;63.84;99345.99;223906;1246;139596;-63
2022/11/08 07:34:03;;;;;;;25.00;14.30;;;;;;;8.29;64.12;99344.86;223357;1254;139708;-64
2022/11/08 07:39:06;;;;;;;22.20;14.80;;;;;;;8.40;64.26;99346.27;223170;1257;139692;-64
2022/11/08 07:44:09;;;;;;;24.00;14.00;;;;;;;8.59;64.32;99347.29;223285;1253;139919;-63
2022/11/08 07:49:12;;;;;;;22.90;15.30;;;;;;;8.85;64.67;99343.02;223190;1257;140718;-63
2022/11/08 07:54:16;;;;;;;24.20;14.10;;;;;;;9.13;64.74;99335.95;223245;1256;140522;-63
2022/11/08 07:59:18;;;;;;;29.70;14.40;;;;;;;9.39;64.88;99336.89;223152;1248;141116;-62
2022/11/08 08:04:21;;;;;;;29.20;15.10;;;;;;;9.63;64.89;99330.45;223208;1254;230561;-63
2022/11/08 08:09:24;;;;;;;24.10;14.20;;;;;;;9.89;64.81;99331.20;224044;1246;140757;-63
2022/11/08 08:14:27;;;;;;;204.20;131.10;;;;;;;10.15;65.13;99325.86;223243;1253;140023;-60
2022/11/08 08:19:30;;;;;;;95.70;57.40;;;;;;;10.49;65.37;99325.57;223159;1249;140488;-61
2022/11/08 08:24:33;;;;;;;33.10;20.10;;;;;;;10.75;65.06;99314.10;223217;1253;140349;-61
2022/11/08 08:29:36;;;;;;;22.60;11.60;;;;;;;10.96;64.77;99312.21;223909;1246;139736;-61
2022/11/08 08:34:39;;;;;;;25.80;10.60;;;;;;;11.16;64.58;99308.55;223302;1258;141561;-60
2022/11/08 08:39:43;;;;;;;29.60;14.60;;;;;;;11.39;64.30;99307.85;223397;1254;139904;-62
2022/11/08 08:44:45;;;;;;;33.10;16.30;;;;;;;11.65;64.50;99306.05;223214;1246;140120;-61
2022/11/08 08:49:49;;;;;;;28.30;14.50;;;;;;;11.88;64.23;99303.58;223173;1258;139688;-62
2022/11/08 08:54:51;;;;;;;186.50;115.60;;;;;;;12.09;64.02;99302.95;223944;1250;140173;-61
2022/11/08 08:59:54;;;;;;;150.40;96.80;;;;;;;12.33;64.20;99300.52;223185;1253;140368;-63
2022/11/08 09:05:18;;;;;;;24.70;15.50;;;;;;;12.55;63.71;99298.20;223323;1257;140653;-62
2022/11/08 09:10:21;;;;;;;12.30;7.10;;;;;;;12.72;63.33;99298.14;223997;1240;140317;-64
2022/11/08 09:15:24;;;;;;;13.30;7.20;;;;;;;12.92;63.32;99296.78;224060;1247;139900;-60
2022/11/08 09:20:27;;;;;;;15.40;7.70;;;;;;;13.17;62.95;99297.06;223228;1254;140962;-62
2022/11/08 09:25:30;;;;;;;13.20;7.10;;;;;;;13.42;62.40;99299.84;223256;1257;139956;-65
2022/11/08 09:30:33;;;;;;;12.50;7.40;;;;;;;13.61;61.91;99299.03;223912;1239;140533;-62
2022/11/08 09:35:37;;;;;;;12.90;7.10;;;;;;;13.80;61.89;99293.20;223977;1250;139129;-62
2022/11/08 09:40:54;;;;;;;12.80;6.70;;;;;;;13.96;61.52;99288.00;223231;1257;139613;-61
2022/11/08 09:45:57;;;;;;;15.90;6.10;;;;;;;14.15;61.35;99288.00;223020;1246;140052;-66
2022/11/08 09:51:16;;;;;;;215.80;133.40;;;;;;;14.32;60.98;99287.87;223784;1257;141028;-63
2022/11/08 09:56:27;;;;;;;19.20;7.80;;;;;;;14.46;60.58;99288.22;223970;1244;140574;-60
2022/11/08 10:01:42;;;;;;;11.60;5.40;;;;;;;14.61;60.36;99285.93;223192;1253;140475;-62
2022/11/08 10:07:06;;;;;;;8.90;4.30;;;;;;;14.80;60.02;99284.51;222455;1261;140592;-64
2022/11/08 10:12:14;;;;;;;9.20;4.80;;;;;;;15.02;59.76;99278.52;222406;1258;140547;-65
2022/11/08 10:17:35;;;;;;;6.70;4.40;;;;;;;15.24;59.28;99281.08;223074;1238;140057;-63
2022/11/08 10:22:46;;;;;;;11.60;5.60;;;;;;;15.50;59.11;99273.52;222360;1257;141125;-61
2022/11/08 10:27:53;;;;;;;12.80;5.10;;;;;;;15.82;58.86;99266.89;222479;1257;140353;-64
2022/11/08 10:32:56;;;;;;;13.60;4.70;;;;;;;16.12;58.34;99258.73;222380;1255;139693;-63
2022/11/08 10:38:02;;;;;;;150.10;103.30;;;;;;;16.38;57.93;99250.02;222392;1256;140073;-64
2022/11/08 10:43:13;;;;;;;13.60;6.20;;;;;;;16.63;57.42;99243.60;222482;1255;141240;-64
2022/11/08 10:48:16;;;;;;;7.80;3.90;;;;;;;16.81;56.78;99239.64;222415;1257;141121;-65
2022/11/08 10:53:30;;;;;;;9.60;4.00;;;;;;;16.93;56.17;99236.47;223129;1249;140106;-65
2022/11/08 10:58:39;;;;;;;7.60;4.00;;;;;;;17.00;55.50;99233.15;222370;1256;140116;-63
2022/11/08 11:04:08;;;;;;;11.40;4.10;;;;;;;17.03;55.04;99227.00;223168;1246;138856;-61
2022/11/08 11:09:22;;;;;;;7.20;3.10;;;;;;;17.02;54.59;99220.29;222300;1257;140173;-61
2022/11/08 11:14:26;;;;;;;6.90;2.60;;;;;;;17.05;54.24;99208.21;222216;1254;140074;-65
2022/11/08 11:19:29;;;;;;;7.20;2.20;;;;;;;17.09;53.70;99206.03;222241;1254;140285;-65
2022/11/08 11:24:44;;;;;;;5.50;2.80;;;;;;;17.13;53.33;99202.66;222275;1251;141199;-62
2022/11/08 11:29:47;;;;;;;5.60;2.50;;;;;;;17.19;52.93;99200.54;222260;1256;139829;-63
2022/11/08 11:34:58;;;;;;;5.30;2.20;;;;;;;17.25;52.70;99190.89;222221;1257;140123;-66
2022/11/08 11:40:28;;;;;;;2.80;1.90;;;;;;;17.38;52.51;99194.52;222366;1257;139608;-63
2022/11/08 11:45:43;;;;;;;5.40;2.30;;;;;;;17.53;52.08;99191.58;222618;1256;139504;-62
2022/11/08 11:50:48;;;;;;;7.20;2.00;;;;;;;17.66;51.62;99187.09;222454;1257;140006;-63
2022/11/08 11:56:04;;;;;;;4.60;1.80;;;;;;;17.77;51.39;99181.12;222441;1254;139473;-62
2022/11/08 12:01:31;;;;;;;5.20;2.30;;;;;;;17.85;51.00;99178.73;222339;1254;140574;-63
2022/11/08 12:06:45;;;;;;;5.90;2.40;;;;;;;17.89;50.69;99174.41;222334;1257;140825;-63
2022/11/08 12:11:53;;;;;;;101.00;66.30;;;;;;;17.94;50.60;99168.28;222441;1252;139941;-62
2022/11/08 12:16:59;;;;;;;10.80;5.70;;;;;;;18.13;52.49;99163.98;222293;1257;142131;-64
2022/11/08 12:22:24;;;;;;;12.10;5.80;;;;;;;18.61;53.92;99160.77;223345;1247;139956;-63
2022/11/08 12:27:42;;;;;;;7.30;4.60;;;;;;;19.11;53.74;99157.18;223201;1251;139971;-65
2022/11/08 12:33:13;;;;;;;8.50;5.70;;;;;;;19.43;53.18;99146.92;222354;1257;140426;-62
2022/11/08 12:38:30;;;;;;;6.40;4.40;;;;;;;19.69;53.20;99143.33;223187;1247;140211;-64
2022/11/08 12:44:00;;;;;;;7.10;3.90;;;;;;;19.82;53.04;99141.30;222323;1253;140353;-62
2022/11/08 12:49:15;;;;;;;5.50;3.50;;;;;;;19.92;52.63;99140.73;222291;1254;139914;-61
2022/11/08 12:54:20;;;;;;;8.40;3.20;;;;;;;19.91;52.03;99133.76;222313;1257;139775;-63
2022/11/08 12:59:28;;;;;;;6.10;2.70;;;;;;;19.86;51.25;99130.86;222336;1257;140033;-62
2022/11/08 13:04:49;;;;;;;4.40;2.50;;;;;;;19.83;51.40;99128.27;222996;1240;139567;-60
2022/11/08 13:10:03;;;;;;;5.60;2.90;;;;;;;19.84;51.58;99120.95;222394;1252;139140;-63
2022/11/08 13:15:23;;;;;;;5.30;2.40;;;;;;;19.92;51.57;99117.29;222427;1250;139557;-59
2022/11/08 13:20:47;;;;;;;4.70;2.60;;;;;;;19.98;51.18;99119.39;222406;1256;139898;-63
2022/11/08 13:25:51;;;;;;;4.10;2.40;;;;;;;19.97;51.06;99119.83;223180;1250;140404;-64
2022/11/08 13:31:01;;;;;;;149.10;102.70;;;;;;;19.95;50.54;99119.38;222381;1241;140102;-64
2022/11/08 13:36:45;;;;;;;15.20;9.50;;;;;;;19.72;49.23;99120.03;223113;1242;140292;-65
2022/11/08 13:42:23;;;;;;;6.30;2.60;;;;;;;19.33;48.72;99121.66;222379;1254;140000;-62
2022/11/08 13:47:32;;;;;;;9.30;5.30;;;;;;;18.99;48.88;99122.96;222384;1246;193101;-66
2022/11/08 13:52:55;;;;;;;5.40;2.40;;;;;;;18.72;49.33;99118.07;44323;1255;546245;-69
2022/11/08 13:53:59;;;;;;;10.00;2.80;;;;;;;18.68;49.54;99120.63;45527;1247;136707;-70
2022/11/08 13:55:02;;;;;;;6.60;3.30;;;;;;;18.66;49.36;99121.14;45451;1260;137414;-66
2022/11/08 13:56:05;;;;;;;7.70;3.50;;;;;;;18.65;49.38;99121.50;45511;1250;137427;-64
2022/11/08 13:57:08;;;;;;;5.50;2.80;;;;;;;18.63;49.52;99125.08;45448;1254;137298;-68
2022/11/08 13:59:16;;;;;;;11.50;4.30;;;;;;;18.62;49.32;99122.61;44405;1256;554482;-69
2022/11/08 14:00:23;;;;;;;11.50;2.90;;;;;;;18.60;49.38;99122.60;45440;1235;136888;-69
2022/11/08 14:01:50;;;;;;;8.70;2.90;;;;;;;18.59;49.38;99121.30;45460;1244;137797;-68
2022/11/08 14:02:52;;;;;;;7.20;2.30;;;;;;;18.56;49.31;99120.81;45840;1249;137102;-64
2022/11/08 14:03:55;;;;;;;9.40;2.60;;;;;;;18.55;49.47;99120.83;45832;1249;138096;-68
2022/11/08 14:05:00;;;;;;;6.30;2.60;;;;;;;18.53;49.41;99119.86;45931;1242;136352;-66
2022/11/08 14:06:05;;;;;;;8.20;2.60;;;;;;;18.52;49.46;99119.48;46050;1238;137653;-65
2022/11/08 14:07:08;;;;;;;6.70;2.40;;;;;;;18.51;49.42;99122.27;45785;1252;137779;-65
2022/11/08 14:17:11;;;;;;;5.70;2.60;;;;;;;18.53;48.84;99111.23;222644;1250;580412;-63
2022/11/08 14:22:14;;;;;;;8.20;2.30;;;;;;;18.22;48.62;99112.70;227380;1239;138361;-64
2022/11/08 14:27:16;;;;;;;12.80;2.70;;;;;;;17.89;48.69;99109.08;226201;1247;139192;-62
2022/11/08 14:32:19;;;;;;;9.50;2.70;;;;;;;17.60;49.08;99103.65;226497;1243;139353;-62
2022/11/08 14:37:22;;;;;;;8.80;2.60;;;;;;;17.35;49.61;99105.52;227406;1237;138683;-63
2022/11/08 14:42:24;;;;;;;6.80;2.40;;;;;;;17.14;49.82;99103.56;226449;1240;138565;-63
2022/11/08 14:47:29;;;;;;;7.20;3.20;;;;;;;16.98;50.02;99102.14;226384;1237;138508;-66
2022/11/08 14:52:31;;;;;;;8.00;3.00;;;;;;;16.80;50.23;99104.37;226442;1238;138594;-63
2022/11/08 14:57:35;;;;;;;7.80;3.10;;;;;;;16.63;50.54;99097.48;227514;1237;138993;-62
2022/11/08 15:02:38;;;;;;;60.40;36.30;;;;;;;16.48;50.80;99097.65;226957;1236;138295;-61
2022/11/08 15:07:40;;;;;;;14.60;7.80;;;;;;;16.32;51.13;99096.71;227954;1237;139186;-61
2022/11/08 15:12:43;;;;;;;8.50;3.80;;;;;;;16.14;51.43;99098.55;227614;1240;139457;-65
2022/11/08 15:17:46;;;;;;;22.90;4.60;;;;;;;15.97;51.73;99094.06;227958;1244;137877;-63
2022/11/08 15:22:49;;;;;;;20.80;5.00;;;;;;;15.80;51.91;99092.27;227997;1241;138194;-64
2022/11/08 15:27:58;;;;;;;17.40;5.40;;;;;;;15.64;52.34;99088.92;228064;1240;138104;-63
2022/11/08 15:33:02;;;;;;;21.50;5.60;;;;;;;15.48;52.63;99088.41;229093;1237;137934;-68
2022/11/08 15:38:04;;;;;;;16.90;5.70;;;;;;;15.35;52.95;99089.67;227955;1237;138943;-66
2022/11/08 15:43:07;;;;;;;18.60;5.80;;;;;;;15.21;53.31;99088.52;227718;1240;138087;-63
2022/11/08 15:48:10;;;;;;;23.20;5.30;;;;;;;15.07;53.39;99088.52;227650;1241;138383;-64
2022/11/08 15:53:13;;;;;;;16.00;4.90;;;;;;;14.94;53.71;99084.40;228799;1236;138434;-66
2022/11/08 15:58:16;;;;;;;20.40;5.00;;;;;;;14.80;53.89;99089.06;227968;1243;138814;-63
2022/11/08 16:03:19;;;;;;;20.10;5.20;;;;;;;14.66;54.11;99089.79;228032;1240;138712;-64
2022/11/08 16:08:23;;;;;;;20.40;5.20;;;;;;;14.54;54.40;99088.79;227925;1248;138168;-62
2022/11/08 16:13:27;;;;;;;15.80;5.70;;;;;;;14.41;54.50;99083.30;227940;1243;138354;-65
2022/11/08 16:18:33;;;;;;;16.60;5.30;;;;;;;14.30;54.74;99081.55;227913;1240;138826;-67
2022/11/08 16:23:35;;;;;;;;;;;;;;;14.17;55.01;99084.06;228922;1237;139160;-64
2022/11/08 16:28:38;;;;;;;16.90;6.20;;;;;;;14.05;55.24;99085.20;228965;1240;124059;-63
2022/11/08 16:33:41;;;;;;;14.50;7.00;;;;;;;13.94;55.63;99088.45;228017;1244;138522;-62
2022/11/08 16:38:44;;;;;;;22.80;7.00;;;;;;;13.88;55.87;99086.45;228165;1243;138024;-63
2022/11/08 16:43:47;;;;;;;16.20;6.50;;;;;;;13.82;55.95;99090.83;228092;1246;138444;-66
2022/11/08 16:48:49;;;;;;;16.30;6.80;;;;;;;13.77;56.16;99094.11;227885;1244;138644;-64
2022/11/08 16:53:52;;;;;;;17.00;6.10;;;;;;;13.70;56.21;99091.90;228775;1237;138486;-64
2022/11/08 16:58:55;;;;;;;26.30;7.60;;;;;;;13.60;56.43;99088.37;227920;1245;138146;-68
2022/11/08 17:03:58;;;;;;;15.20;6.70;;;;;;;13.54;56.61;99090.05;227971;1243;138201;-64
2022/11/08 17:09:01;;;;;;;14.40;6.20;;;;;;;13.46;56.56;99090.83;228804;1232;138722;-66
2022/11/08 17:14:03;;;;;;;17.70;6.40;;;;;;;13.41;56.93;99093.33;228195;1242;138423;-61
2022/11/08 17:19:07;;;;;;;20.20;7.80;;;;;;;13.35;57.02;99092.85;229028;1234;140152;-63
2022/11/08 17:24:09;;;;;;;18.70;7.00;;;;;;;13.25;57.17;99096.92;227829;1244;138402;-64
2022/11/08 17:29:12;;;;;;;18.40;6.60;;;;;;;13.18;57.06;99098.19;227897;1244;140781;-61
2022/11/08 17:34:15;;;;;;;19.70;7.40;;;;;;;13.10;57.36;99099.08;228265;1240;139261;-63
2022/11/08 17:39:18;;;;;;;18.50;7.70;;;;;;;13.03;57.37;99099.43;229043;1234;138511;-65
2022/11/08 17:44:20;;;;;;;19.20;8.00;;;;;;;12.93;57.51;99100.45;228041;1242;138169;-66
2022/11/08 17:49:23;;;;;;;18.90;7.60;;;;;;;12.84;57.73;99104.34;227972;1240;138664;-64
2022/11/08 17:54:26;;;;;;;19.60;7.00;;;;;;;12.74;57.93;99105.17;227999;1244;137755;-66
2022/11/08 17:59:29;;;;;;;23.30;7.90;;;;;;;12.92;58.72;99105.85;228888;1237;138308;-64
2022/11/08 18:04:31;;;;;;;23.90;7.40;;;;;;;12.91;58.28;99103.14;227943;1242;138924;-62
2022/11/08 18:09:34;;;;;;;20.60;8.00;;;;;;;12.82;58.11;99107.82;227910;1237;138743;-64
2022/11/08 18:14:37;;;;;;;20.80;8.10;;;;;;;12.75;58.43;99120.61;228119;1241;139251;-62
2022/11/08 18:19:40;;;;;;;25.20;8.20;;;;;;;12.66;58.09;99117.33;227864;1241;139909;-63
2022/11/08 18:24:42;;;;;;;20.00;8.20;;;;;;;12.54;58.38;99116.54;228072;1241;138832;-62
2022/11/08 18:29:51;;;;;;;16.60;8.30;;;;;;;12.43;58.41;99112.52;227823;1245;138278;-62
2022/11/08 18:34:54;;;;;;;17.40;8.90;;;;;;;12.32;58.56;99114.50;228047;1240;140357;-63
2022/11/08 18:39:58;;;;;;;18.20;9.00;;;;;;;12.23;58.49;99119.90;229153;1233;138864;-63
2022/11/08 18:45:01;;;;;;;119.50;86.10;;;;;;;12.13;58.62;99115.09;228965;1234;138249;-63
2022/11/08 18:50:04;;;;;;;22.70;13.30;;;;;;;12.09;59.48;99117.12;227783;1245;139597;-64
2022/11/08 18:55:07;;;;;;;21.90;10.20;;;;;;;12.00;59.11;99118.58;227807;1241;139747;-65
2022/11/08 19:00:09;;;;;;;24.90;10.60;;;;;;;11.91;59.34;99120.09;227797;1236;140210;-61
2022/11/08 19:05:12;;;;;;;28.30;11.20;;;;;;;11.81;59.27;99122.31;228797;1235;138693;-62
2022/11/08 19:10:15;;;;;;;25.80;11.40;;;;;;;11.72;59.46;99117.56;227871;1247;138280;-64
2022/11/08 19:15:27;;;;;;;24.50;12.80;;;;;;;11.68;59.47;99122.69;227888;1243;138599;-63
2022/11/08 19:20:30;;;;;;;38.00;12.90;;;;;;;11.67;59.96;99125.35;228049;1244;139683;-65
2022/11/08 19:25:32;;;;;;;40.00;14.10;;;;;;;11.63;59.84;99128.30;229041;1237;138681;-61
2022/11/08 19:30:37;;;;;;;34.70;13.90;;;;;;;11.58;60.02;99131.46;228012;1244;139986;-63
2022/11/08 19:35:40;;;;;;;35.30;14.10;;;;;;;11.52;59.92;99133.98;228106;1244;139240;-63
2022/11/08 19:40:46;;;;;;;37.50;15.60;;;;;;;11.43;59.95;99134.95;229041;1237;139067;-64
2022/11/08 19:45:48;;;;;;;35.70;16.80;;;;;;;11.32;59.73;99144.64;229090;1234;138637;-62
2022/11/08 19:50:54;;;;;;;33.70;16.60;;;;;;;11.23;59.79;99147.36;228010;1235;138186;-61
2022/11/08 19:55:57;;;;;;;39.30;17.50;;;;;;;11.13;59.94;99153.70;227956;1243;138980;-63
2022/11/08 20:01:01;;;;;;;41.70;18.40;;;;;;;11.03;59.75;99156.25;229074;1238;138650;-63
2022/11/08 20:06:04;;;;;;;41.80;20.80;;;;;;;10.93;59.60;99158.45;228945;1236;138192;-64
2022/11/08 20:11:07;;;;;;;45.60;20.70;;;;;;;10.83;59.75;99158.71;228005;1241;138219;-63
2022/11/08 20:16:11;;;;;;;41.80;23.00;;;;;;;10.73;59.80;99163.40;229144;1231;139935;-60
2022/11/08 20:21:14;;;;;;;60.40;31.70;;;;;;;10.70;60.49;99164.85;229032;1241;138372;-64
2022/11/08 20:26:17;;;;;;;55.70;22.70;;;;;;;10.67;59.91;99160.98;227911;1240;138008;-64
2022/11/08 20:31:20;;;;;;;48.10;22.80;;;;;;;10.61;60.24;99160.91;227650;1243;139954;-62
2022/11/08 20:36:24;;;;;;;51.30;23.70;;;;;;;10.59;60.28;99154.69;228192;1248;139366;-64
2022/11/08 20:41:28;;;;;;;50.80;24.90;;;;;;;10.56;60.37;99154.35;228137;1242;138632;-64
2022/11/08 20:46:31;;;;;;;50.10;24.00;;;;;;;10.49;60.19;99153.34;227725;1237;138747;-64
2022/11/08 20:51:34;;;;;;;92.70;54.10;;;;;;;10.46;60.51;99154.25;227898;1243;138045;-64
2022/11/08 20:56:37;;;;;;;49.30;26.20;;;;;;;10.53;60.96;99154.17;227930;1244;138567;-61
2022/11/08 21:01:40;;;;;;;47.30;25.50;;;;;;;10.51;60.10;99156.77;227949;1243;138445;-61
2022/11/08 21:06:43;;;;;;;45.70;24.10;;;;;;;10.34;59.86;99158.48;228814;1230;138602;-62
2022/11/08 21:11:46;;;;;;;47.40;25.40;;;;;;;10.16;59.98;99156.52;227954;1240;140230;-60
2022/11/08 21:16:49;;;;;;;43.10;25.20;;;;;;;10.03;60.19;99155.83;228116;1243;138041;-59
2022/11/08 21:22:15;;;;;;;57.20;26.50;;;;;;;9.91;59.86;99155.47;228283;1234;138674;-61
2022/11/08 21:27:18;;;;;;;72.50;40.80;;;;;;;9.84;60.43;99150.90;228009;1237;138385;-62
2022/11/08 21:32:21;;;;;;;55.10;26.00;;;;;;;9.84;60.39;99150.75;228934;1232;138745;-60
2022/11/08 21:37:23;;;;;;;44.90;25.70;;;;;;;9.75;60.28;99151.60;227783;1245;138520;-58
2022/11/08 21:42:26;;;;;;;178.00;121.80;;;;;;;9.66;60.33;99152.98;227719;1244;138901;-59
2022/11/08 21:47:29;;;;;;;57.90;28.90;;;;;;;9.64;60.69;99158.39;227754;1244;138916;-62
2022/11/08 21:52:32;;;;;;;51.20;28.20;;;;;;;9.69;60.67;99154.25;228053;1243;138513;-63
2022/11/08 21:57:34;;;;;;;48.40;27.10;;;;;;;9.65;60.49;99152.33;228783;1235;138573;-62
2022/11/08 22:02:37;;;;;;;46.30;26.40;;;;;;;9.61;60.38;99153.46;227637;1243;138658;-63
2022/11/08 22:07:40;;;;;;;47.30;28.00;;;;;;;9.55;60.51;99151.66;229046;1234;138302;-61
2022/11/08 22:12:43;;;;;;;50.70;29.00;;;;;;;9.46;60.45;99154.30;227797;1245;138181;-61
2022/11/08 22:17:45;;;;;;;51.00;29.30;;;;;;;9.36;60.47;99152.56;228939;1234;138220;-66
2022/11/08 22:23:08;;;;;;;105.30;68.20;;;;;;;9.31;60.78;99149.64;227707;1241;138252;-65
2022/11/08 22:28:11;;;;;;;54.30;29.60;;;;;;;9.32;60.71;99149.95;227817;1237;138293;-62
2022/11/08 22:33:14;;;;;;;49.50;27.30;;;;;;;9.21;60.53;99156.02;228584;1234;138229;-64
2022/11/08 22:38:17;;;;;;;46.80;26.60;;;;;;;9.10;60.42;99150.24;227829;1238;138698;-65
2022/11/08 22:43:20;;;;;;;47.00;28.00;;;;;;;9.00;60.57;99149.22;227788;1241;138680;-65
2022/11/08 22:48:23;;;;;;;48.60;27.80;;;;;;;8.89;60.62;99148.20;228194;1244;139831;-64
2022/11/08 22:53:26;;;;;;;43.70;27.70;;;;;;;8.81;60.84;99152.88;229103;1234;138131;-61